Time;durP1;ratioP1;P1;durP2;ratioP2;P2;SDS_P1;SDS_P2;PMS_P1;PMS_P2;Temp;Humidity;BMP_temperature;BMP_pressure;BME280_temperature;BME280_humidity;BME280_pressure;Samples;Min_cycle;Max_cycle;Signal;HPM_P1;HPM_P2
2022/10/30 00:02:18;;;;;;;3.60;1.58;;;20.40;63.80;;;;;;6294157;28;20033;-70
2022/10/30 00:05:19;;;;;;;1.50;1.08;;;20.40;63.80;;;;;;6294196;28;20435;-69
2022/10/30 00:08:21;;;;;;;1.80;1.23;;;20.40;63.80;;;;;;6294509;28;20277;-70
2022/10/30 00:11:22;;;;;;;1.52;1.10;;;20.40;63.80;;;;;;6293748;28;20036;-70
2022/10/30 00:14:23;;;;;;;1.63;1.20;;;20.40;63.80;;;;;;6293945;28;20020;-70
2022/10/30 00:17:23;;;;;;;1.25;0.90;;;20.40;63.80;;;;;;6293915;28;20090;-70
2022/10/30 00:20:24;;;;;;;1.23;0.98;;;20.40;63.80;;;;;;6294223;28;20463;-70
2022/10/30 00:23:25;;;;;;;1.73;1.15;;;20.40;63.80;;;;;;6293734;28;20098;-69
2022/10/30 00:26:26;;;;;;;1.70;1.10;;;20.40;63.80;;;;;;6294061;28;20033;-69
2022/10/30 00:29:27;;;;;;;1.73;1.08;;;20.40;63.80;;;;;;6293725;28;20461;-70
2022/10/30 00:32:28;;;;;;;1.30;1.00;;;20.40;63.80;;;;;;6294206;28;20023;-70
2022/10/30 00:35:29;;;;;;;1.10;1.00;;;20.40;63.80;;;;;;6292992;28;20071;-70
2022/10/30 00:38:30;;;;;;;1.90;1.23;;;20.40;63.80;;;;;;6294005;28;20487;-69
2022/10/30 00:41:31;;;;;;;1.90;1.20;;;20.40;63.80;;;;;;6293009;28;20028;-70
2022/10/30 00:44:39;;;;;;;1.55;0.95;;;20.40;63.80;;;;;;6294012;28;20052;-70
2022/10/30 00:48:02;;;;;;;1.70;1.20;;;20.40;63.80;;;;;;6292946;28;20028;-70
2022/10/30 00:51:06;;;;;;;1.45;1.05;;;20.40;63.80;;;;;;6293422;28;20491;-70
2022/10/30 00:54:07;;;;;;;1.60;1.20;;;20.40;63.80;;;;;;6293666;28;20032;-70
2022/10/30 00:57:08;;;;;;;1.40;1.10;;;20.40;63.80;;;;;;6293580;28;20036;-71
2022/10/30 01:00:11;;;;;;;2.25;1.20;;;20.40;63.80;;;;;;6294026;28;20021;-70
2022/10/30 01:03:12;;;;;;;2.05;1.10;;;20.40;63.80;;;;;;6293462;28;20071;-70
2022/10/30 01:06:15;;;;;;;1.40;1.10;;;20.40;63.80;;;;;;6292913;28;20021;-70
2022/10/30 01:09:15;;;;;;;1.20;1.00;;;20.40;63.80;;;;;;6292613;28;20025;-70
2022/10/30 01:12:16;;;;;;;1.52;1.17;;;20.40;63.80;;;;;;6293362;28;20036;-70
2022/10/30 01:15:20;;;;;;;1.30;1.00;;;20.40;63.80;;;;;;6292712;28;20028;-70
2022/10/30 01:18:51;;;;;;;2.03;1.45;;;20.40;63.80;;;;;;6293355;28;20024;-70
2022/10/30 01:22:11;;;;;;;1.17;0.98;;;20.40;63.80;;;;;;6293093;28;20066;-70
2022/10/30 01:25:30;;;;;;;1.75;1.23;;;20.40;63.80;;;;;;6292757;28;20028;-69
2022/10/30 01:28:39;;;;;;;1.33;1.00;;;20.40;63.80;;;;;;6292312;28;20523;-70
2022/10/30 01:31:47;;;;;;;1.27;1.08;;;20.40;63.80;;;;;;6293188;28;20020;-70
2022/10/30 01:35:01;;;;;;;2.65;1.10;;;20.40;64.20;;;;;;6293241;28;20032;-69
2022/10/30 01:38:24;;;;;;;1.10;0.90;;;20.40;63.80;;;;;;6292112;28;20033;-69
2022/10/30 01:41:25;;;;;;;1.35;0.98;;;20.40;63.80;;;;;;6292106;28;20479;-70
2022/10/30 01:44:30;;;;;;;2.22;1.30;;;20.40;63.80;;;;;;6292831;28;20031;-69
2022/10/30 01:47:51;;;;;;;1.65;1.13;;;20.40;63.80;;;;;;6292181;28;20107;-70
2022/10/30 01:50:59;;;;;;;1.25;1.00;;;20.40;63.80;;;;;;6291174;28;20057;-70
2022/10/30 01:54:15;;;;;;;1.55;1.08;;;20.40;63.80;;;;;;6291934;28;20032;-71
2022/10/30 01:57:39;;;;;;;;;;;20.40;63.80;;;;;;6292694;28;20033;-69
2022/10/30 02:00:42;;;;;;;1.52;1.17;;;20.40;63.80;;;;;;6291862;28;19905;-69
2022/10/30 02:03:45;;;;;;;1.95;1.30;;;20.40;63.80;;;;;;6292481;28;20033;-70
2022/10/30 02:06:45;;;;;;;2.40;1.30;;;20.40;63.80;;;;;;6292107;28;20064;-70
2022/10/30 02:09:47;;;;;;;1.65;1.05;;;20.40;63.80;;;;;;6291731;28;20024;-70
2022/10/30 02:12:48;;;;;;;2.15;1.25;;;20.40;63.80;;;;;;6291607;28;20056;-69
2022/10/30 02:15:49;;;;;;;1.50;1.02;;;20.40;63.80;;;;;;6292129;28;20399;-70
2022/10/30 02:18:49;;;;;;;1.58;1.15;;;20.40;63.80;;;;;;6293227;28;20032;-70
2022/10/30 02:21:50;;;;;;;1.20;1.10;;;20.40;63.80;;;;;;6296589;28;20021;-70
2022/10/30 02:24:51;;;;;;;2.90;1.35;;;20.40;63.80;;;;;;6296541;28;20100;-70
2022/10/30 02:27:51;;;;;;;2.53;1.40;;;20.40;63.80;;;;;;6296311;28;20493;-70
2022/10/30 02:30:52;;;;;;;2.08;1.20;;;20.40;63.80;;;;;;6296694;28;20229;-70
2022/10/30 02:33:52;;;;;;;1.33;1.15;;;20.40;63.80;;;;;;6296273;28;20052;-69
2022/10/30 02:36:53;;;;;;;1.63;1.10;;;20.40;63.80;;;;;;6296416;28;20032;-70
2022/10/30 02:39:54;;;;;;;1.65;1.15;;;20.40;63.80;;;;;;6296016;28;20028;-70
2022/10/30 02:42:54;;;;;;;1.85;1.40;;;20.40;63.80;;;;;;6295860;28;20556;-70
2022/10/30 02:45:55;;;;;;;1.88;1.35;;;20.40;63.80;;;;;;6296345;28;20228;-70
2022/10/30 02:48:55;;;;;;;2.22;1.30;;;20.40;63.80;;;;;;6295395;28;20085;-70
2022/10/30 02:51:56;;;;;;;2.05;1.48;;;20.40;63.80;;;;;;6295882;28;20048;-70
2022/10/30 02:54:56;;;;;;;1.55;1.30;;;20.40;63.80;;;;;;6295492;28;20024;-70
2022/10/30 02:57:57;;;;;;;1.90;1.15;;;20.40;63.80;;;;;;6295933;28;20032;-70
2022/10/30 03:01:04;;;;;;;1.88;1.30;;;20.40;63.80;;;;;;6296294;28;20025;-70
2022/10/30 03:04:05;;;;;;;2.92;1.27;;;20.40;63.80;;;;;;6295999;28;20024;-70
2022/10/30 03:07:06;;;;;;;1.77;1.10;;;20.40;63.80;;;;;;6296051;28;20082;-70
2022/10/30 03:10:08;;;;;;;1.98;1.00;;;20.40;63.80;;;;;;6296036;28;20383;-70
2022/10/30 03:13:10;;;;;;;1.80;1.20;;;20.40;63.80;;;;;;6295720;28;20020;-70
2022/10/30 03:16:22;;;;;;;1.77;1.23;;;20.40;63.80;;;;;;6295989;28;20032;-70
2022/10/30 03:19:22;;;;;;;2.15;1.40;;;20.40;63.80;;;;;;6295922;28;20060;-69
2022/10/30 03:22:23;;;;;;;1.67;1.20;;;20.40;63.80;;;;;;6295715;28;20027;-70
2022/10/30 03:25:24;;;;;;;1.85;1.42;;;20.40;63.80;;;;;;6295725;28;20012;-70
2022/10/30 03:28:27;;;;;;;1.55;1.25;;;20.40;63.80;;;;;;6295147;28;20021;-70
2022/10/30 03:31:30;;;;;;;2.35;1.42;;;20.40;63.80;;;;;;6294952;28;20025;-70
2022/10/30 03:34:31;;;;;;;1.95;1.50;;;20.40;63.80;;;;;;6295176;28;20471;-69
2022/10/30 03:37:31;;;;;;;2.03;1.30;;;20.40;63.80;;;;;;6294805;28;20166;-70
2022/10/30 03:40:32;;;;;;;3.22;1.40;;;20.40;63.80;;;;;;6295305;28;20047;-70
2022/10/30 03:43:33;;;;;;;2.50;1.50;;;20.40;63.80;;;;;;6295107;28;20387;-69
2022/10/30 03:46:34;;;;;;;1.65;1.35;;;20.40;63.80;;;;;;6295052;28;20298;-70
2022/10/30 03:49:35;;;;;;;1.83;1.40;;;20.40;63.80;;;;;;6294591;28;20021;-70
2022/10/30 03:52:35;;;;;;;2.35;1.23;;;20.40;64.70;;;;;;6294712;28;20029;-71
2022/10/30 03:55:36;;;;;;;2.10;1.52;;;20.40;63.80;;;;;;6294496;28;20654;-69
2022/10/30 03:58:37;;;;;;;1.35;1.08;;;20.40;63.80;;;;;;6294518;28;20028;-70
2022/10/30 04:01:37;;;;;;;1.55;1.30;;;20.40;63.80;;;;;;6294502;28;20028;-70
2022/10/30 04:04:38;;;;;;;1.75;1.25;;;20.40;63.90;;;;;;6294506;28;20100;-70
2022/10/30 04:07:38;;;;;;;2.25;1.30;;;20.40;63.80;;;;;;6294615;28;20379;-69
2022/10/30 04:10:43;;;;;;;1.75;1.25;;;20.40;63.80;;;;;;6294244;28;20029;-69
2022/10/30 04:13:44;;;;;;;3.30;1.50;;;20.40;63.80;;;;;;6294749;28;20112;-70
2022/10/30 04:16:44;;;;;;;2.00;1.23;;;20.40;63.90;;;;;;6294599;28;20048;-70
2022/10/30 04:19:45;;;;;;;1.92;1.33;;;20.40;63.80;;;;;;6294107;28;20028;-70
2022/10/30 04:22:46;;;;;;;2.20;1.23;;;20.40;63.80;;;;;;6294119;28;20020;-69
2022/10/30 04:25:47;;;;;;;1.85;1.30;;;20.40;63.80;;;;;;6293853;28;20431;-70
2022/10/30 04:28:47;;;;;;;1.45;1.23;;;20.40;63.80;;;;;;6293577;28;20035;-70
2022/10/30 04:31:48;;;;;;;1.88;1.10;;;20.40;63.80;;;;;;6293947;28;20375;-70
2022/10/30 04:34:52;;;;;;;2.95;1.70;;;20.40;63.80;;;;;;6293662;28;20430;-70
2022/10/30 04:37:54;;;;;;;1.17;1.05;;;20.40;63.80;;;;;;6293399;28;20388;-70
2022/10/30 04:40:54;;;;;;;1.63;1.42;;;20.40;63.80;;;;;;6293636;28;20048;-69
2022/10/30 04:43:55;;;;;;;1.42;1.15;;;20.40;63.80;;;;;;6292162;28;20021;-69
2022/10/30 04:46:55;;;;;;;2.00;1.30;;;20.40;63.80;;;;;;6293676;28;20055;-70
2022/10/30 04:49:56;;;;;;;3.17;1.20;;;20.40;63.80;;;;;;6292911;28;20067;-70
2022/10/30 04:53:09;;;;;;;1.33;1.20;;;20.40;63.80;;;;;;6293064;28;20024;-70
2022/10/30 04:56:09;;;;;;;1.35;1.10;;;20.40;63.80;;;;;;6292797;28;20055;-70
2022/10/30 05:03:14;;;;;;;1.65;1.23;;;20.40;63.80;;;;;;6268625;28;20021;-69
2022/10/30 05:06:25;;;;;;;1.85;1.20;;;20.40;63.80;;;;;;6282254;28;20029;-70
2022/10/30 05:09:25;;;;;;;1.98;1.20;;;20.40;63.80;;;;;;6292584;28;20029;-70
2022/10/30 05:12:26;;;;;;;2.25;1.50;;;20.40;63.80;;;;;;6293107;28;20063;-70
2022/10/30 05:15:26;;;;;;;1.35;1.25;;;20.40;63.90;;;;;;6292767;28;20382;-70
2022/10/30 05:18:27;;;;;;;1.70;1.33;;;20.40;64.70;;;;;;6292516;28;20078;-70
2022/10/30 05:21:27;;;;;;;1.45;1.20;;;20.40;63.80;;;;;;6291381;28;20027;-70
2022/10/30 05:24:28;;;;;;;1.70;1.20;;;20.40;63.80;;;;;;6292734;28;20020;-70
2022/10/30 05:27:28;;;;;;;1.88;1.40;;;20.40;63.80;;;;;;6292775;28;20113;-70
2022/10/30 05:30:31;;;;;;;1.63;1.30;;;20.40;63.80;;;;;;6292369;28;20032;-70
2022/10/30 05:33:31;;;;;;;2.08;1.25;;;20.40;63.80;;;;;;6292387;28;20514;-70
2022/10/30 05:36:32;;;;;;;2.05;1.40;;;20.40;63.80;;;;;;6292520;28;20040;-70
2022/10/30 05:39:33;;;;;;;1.67;1.40;;;20.40;63.80;;;;;;6292215;28;20035;-70
2022/10/30 05:42:33;;;;;;;1.88;1.27;;;20.50;63.90;;;;;;6292329;28;20025;-70
2022/10/30 05:45:34;;;;;;;2.22;1.42;;;20.40;63.80;;;;;;6292083;28;20020;-70
2022/10/30 05:48:35;;;;;;;2.33;1.30;;;20.50;63.90;;;;;;6292151;28;20072;-70
2022/10/30 05:51:35;;;;;;;1.95;1.45;;;20.40;63.80;;;;;;6292176;28;20457;-70
2022/10/30 05:54:36;;;;;;;1.83;1.30;;;20.40;63.80;;;;;;6292082;28;20082;-70
2022/10/30 05:57:36;;;;;;;1.42;1.10;;;20.50;63.90;;;;;;6292499;28;20045;-70
2022/10/30 06:00:39;;;;;;;2.22;1.60;;;20.40;63.80;;;;;;6292051;28;20588;-70
2022/10/30 06:03:40;;;;;;;2.08;1.30;;;20.40;63.80;;;;;;6267774;28;20039;-70
2022/10/30 06:06:40;;;;;;;1.30;1.20;;;20.40;63.80;;;;;;6291128;28;20267;-70
2022/10/30 06:09:41;;;;;;;1.65;1.20;;;20.40;63.80;;;;;;6291812;28;20028;-70
2022/10/30 06:12:41;;;;;;;1.60;1.30;;;20.40;63.80;;;;;;6291910;28;20438;-70
2022/10/30 06:15:42;;;;;;;2.13;1.30;;;20.50;63.90;;;;;;6291869;28;20032;-70
2022/10/30 06:18:42;;;;;;;1.60;1.20;;;20.50;63.90;;;;;;6291775;28;20401;-70
2022/10/30 06:21:43;;;;;;;1.40;1.10;;;20.40;63.80;;;;;;6292203;28;20016;-70
2022/10/30 06:24:44;;;;;;;1.50;1.40;;;20.50;63.90;;;;;;6291980;28;20078;-69
2022/10/30 06:27:44;;;;;;;2.17;1.38;;;20.50;63.90;;;;;;6292397;28;20451;-70
2022/10/30 06:30:45;;;;;;;2.17;1.48;;;20.40;63.80;;;;;;6291319;28;20380;-69
2022/10/30 06:33:45;;;;;;;2.17;1.38;;;20.50;64.00;;;;;;6291565;28;20057;-69
2022/10/30 06:36:46;;;;;;;2.25;1.30;;;20.40;63.80;;;;;;6291952;28;20063;-70
2022/10/30 06:39:47;;;;;;;2.15;1.35;;;20.50;63.90;;;;;;6291921;28;20107;-70
2022/10/30 06:42:50;;;;;;;1.92;1.42;;;20.50;63.90;;;;;;6291762;28;20028;-70
2022/10/30 06:45:50;;;;;;;1.83;1.40;;;20.50;63.90;;;;;;6291246;28;20017;-70
2022/10/30 06:48:51;;;;;;;1.33;1.10;;;20.50;64.70;;;;;;6291564;28;20067;-70
2022/10/30 06:51:52;;;;;;;1.38;1.20;;;20.50;63.90;;;;;;6291200;28;20060;-70
2022/10/30 06:54:52;;;;;;;1.45;1.13;;;20.50;63.90;;;;;;6291387;28;20457;-71
2022/10/30 06:57:54;;;;;;;1.70;1.20;;;20.50;64.80;;;;;;6291950;28;20033;-70
2022/10/30 07:00:58;;;;;;;1.75;1.30;;;20.40;63.80;;;;;;6291244;28;20032;-70
2022/10/30 07:03:59;;;;;;;1.88;1.45;;;20.50;63.90;;;;;;6291310;28;20486;-70
2022/10/30 07:06:59;;;;;;;1.15;1.05;;;20.50;63.90;;;;;;6294462;28;20017;-70
2022/10/30 07:10:00;;;;;;;1.20;1.05;;;20.50;63.90;;;;;;6296442;28;20056;-70
2022/10/30 07:13:01;;;;;;;1.67;1.30;;;20.50;63.90;;;;;;6295893;28;20105;-70
2022/10/30 07:16:01;;;;;;;1.35;1.25;;;20.50;63.90;;;;;;6295679;28;20487;-70
2022/10/30 07:19:02;;;;;;;1.85;1.30;;;20.50;63.90;;;;;;6295470;28;20032;-70
2022/10/30 07:22:03;;;;;;;1.52;1.15;;;20.40;63.80;;;;;;6295442;28;20037;-70
2022/10/30 07:25:04;;;;;;;2.00;1.48;;;20.50;63.90;;;;;;6295097;28;20107;-71
2022/10/30 07:28:04;;;;;;;2.28;1.23;;;20.50;63.90;;;;;;6295464;28;20092;-71
2022/10/30 07:31:05;;;;;;;1.88;1.20;;;20.50;63.90;;;;;;6295255;28;20024;-70
2022/10/30 07:34:05;;;;;;;1.65;1.08;;;20.50;63.90;;;;;;6295253;28;20067;-70
2022/10/30 07:37:06;;;;;;;2.10;1.30;;;20.40;63.80;;;;;;6295080;28;20043;-70
2022/10/30 07:40:07;;;;;;;2.40;1.38;;;20.40;63.80;;;;;;6294944;28;20029;-70
2022/10/30 07:43:12;;;;;;;1.27;1.10;;;20.50;63.90;;;;;;6295536;28;20021;-69
2022/10/30 07:46:13;;;;;;;3.42;1.40;;;20.50;63.90;;;;;;6294863;28;20025;-69
2022/10/30 07:49:14;;;;;;;1.77;1.30;;;20.50;63.90;;;;;;6295186;28;20032;-70
2022/10/30 07:52:14;;;;;;;2.22;1.25;;;20.50;63.90;;;;;;6297143;28;20088;-70
2022/10/30 07:55:15;;;;;;;1.48;1.30;;;20.50;63.90;;;;;;6294694;28;20044;-70
2022/10/30 07:58:16;;;;;;;1.60;1.10;;;20.50;63.90;;;;;;6295167;28;20043;-70
2022/10/30 08:01:16;;;;;;;1.95;1.40;;;20.40;63.80;;;;;;6295257;28;20047;-70
2022/10/30 08:04:17;;;;;;;1.58;1.10;;;20.40;63.80;;;;;;6294572;28;20039;-70
2022/10/30 08:07:18;;;;;;;1.15;1.05;;;20.50;63.90;;;;;;6294970;28;20107;-70
2022/10/30 08:10:19;;;;;;;2.00;1.25;;;20.50;63.90;;;;;;6294318;28;20029;-70
2022/10/30 08:13:20;;;;;;;2.40;1.17;;;20.50;63.90;;;;;;6294080;28;20342;-70
2022/10/30 08:16:20;;;;;;;2.10;1.20;;;20.40;63.80;;;;;;6293693;28;20376;-70
2022/10/30 08:19:21;;;;;;;1.55;1.17;;;20.50;63.90;;;;;;6294444;28;20035;-70
2022/10/30 08:22:22;;;;;;;1.63;1.38;;;20.50;63.90;;;;;;6294308;28;20502;-70
2022/10/30 08:25:26;;;;;;;1.83;1.17;;;20.50;63.90;;;;;;6293492;28;20111;-69
2022/10/30 08:28:26;;;;;;;2.33;1.17;;;20.50;63.90;;;;;;6293705;28;20383;-70
2022/10/30 08:31:27;;;;;;;2.47;1.15;;;20.40;63.80;;;;;;6294757;28;20025;-69
2022/10/30 08:34:30;;;;;;;1.42;0.98;;;20.50;63.90;;;;;;6293544;28;20056;-70
2022/10/30 08:37:31;;;;;;;2.25;1.08;;;20.50;63.90;;;;;;6294119;28;20464;-70
2022/10/30 08:40:31;;;;;;;2.45;1.25;;;20.50;63.90;;;;;;6293873;28;20036;-69
2022/10/30 08:43:32;;;;;;;2.13;1.13;;;20.50;63.90;;;;;;6293445;28;20040;-70
2022/10/30 08:46:32;;;;;;;1.08;0.98;;;20.50;63.90;;;;;;6293322;28;20032;-69
2022/10/30 08:49:33;;;;;;;1.15;1.00;;;20.50;63.90;;;;;;6293279;28;20131;-70
2022/10/30 08:52:33;;;;;;;2.33;1.35;;;20.50;63.90;;;;;;6293582;28;20070;-70
2022/10/30 08:55:34;;;;;;;1.73;1.10;;;20.50;63.90;;;;;;6293158;28;20108;-70
2022/10/30 08:58:35;;;;;;;1.63;1.08;;;20.50;63.90;;;;;;6293406;28;20478;-70
2022/10/30 09:01:35;;;;;;;1.55;1.05;;;20.40;63.80;;;;;;6293466;28;20146;-70
2022/10/30 09:04:36;;;;;;;1.55;1.40;;;20.40;63.80;;;;;;6274526;28;20036;-70
2022/10/30 09:07:37;;;;;;;2.78;1.23;;;20.50;63.90;;;;;;6289461;28;20082;-70
2022/10/30 09:10:37;;;;;;;1.55;1.10;;;20.50;63.90;;;;;;6291407;28;20558;-70
2022/10/30 09:13:38;;;;;;;1.85;1.10;;;20.50;63.90;;;;;;6291533;28;20031;-70
2022/10/30 09:16:39;;;;;;;1.73;1.35;;;20.50;63.90;;;;;;6290155;28;20035;-70
2022/10/30 09:19:39;;;;;;;1.48;1.08;;;20.50;63.90;;;;;;6291417;28;20387;-70
2022/10/30 09:22:41;;;;;;;1.48;1.00;;;20.50;63.90;;;;;;6288421;28;20042;-70
2022/10/30 09:25:41;;;;;;;1.50;1.00;;;20.40;63.80;;;;;;6290721;28;20021;-70
2022/10/30 09:28:42;;;;;;;1.90;1.20;;;20.50;63.90;;;;;;6290415;28;20028;-70
2022/10/30 09:31:42;;;;;;;1.90;1.25;;;20.50;63.80;;;;;;6291267;28;20402;-70
2022/10/30 09:34:43;;;;;;;2.50;1.30;;;20.40;63.70;;;;;;6290763;28;20017;-70
2022/10/30 09:37:44;;;;;;;2.25;1.33;;;20.40;63.70;;;;;;6291494;28;20060;-70
2022/10/30 09:40:56;;;;;;;1.65;1.00;;;20.40;63.70;;;;;;6290827;28;20025;-70
2022/10/30 09:43:59;;;;;;;1.88;1.13;;;20.50;63.90;;;;;;6290688;28;20554;-71
2022/10/30 09:47:07;;;;;;;3.83;0.90;;;20.50;63.80;;;;;;6290702;28;20104;-70
2022/10/30 09:50:10;;;;;;;1.33;1.08;;;20.40;63.80;;;;;;6290936;28;20317;-70
2022/10/30 09:53:30;;;;;;;1.23;1.00;;;20.50;63.90;;;;;;6290432;28;20040;-69
2022/10/30 09:56:33;;;;;;;2.20;1.30;;;20.50;63.80;;;;;;6290522;28;20029;-70
2022/10/30 10:00:05;;;;;;;1.73;1.13;;;20.50;63.90;;;;;;6270037;28;20021;-70
2022/10/30 10:03:33;;;;;;;1.55;1.05;;;20.50;63.90;;;;;;6290945;28;20051;-70
2022/10/30 10:06:38;;;;;;;1.52;1.00;;;20.50;63.90;;;;;;6290341;28;20403;-70
2022/10/30 10:09:40;;;;;;;1.92;1.23;;;20.40;63.70;;;;;;6290543;28;20100;-70
2022/10/30 10:12:47;;;;;;;1.38;1.08;;;20.40;63.80;;;;;;6276066;28;20021;-71
2022/10/30 10:15:58;;;;;;;1.05;0.80;;;20.50;63.90;;;;;;6290983;28;20498;-70
2022/10/30 10:19:36;;;;;;;1.52;1.10;;;20.50;63.90;;;;;;6290130;28;20735;-70
2022/10/30 10:22:43;;;;;;;1.23;0.90;;;20.50;63.90;;;;;;6288945;28;20525;-70
2022/10/30 10:25:51;;;;;;;1.25;1.10;;;20.40;63.80;;;;;;6290530;28;20118;-70
2022/10/30 10:29:10;;;;;;;1.80;1.13;;;20.50;63.90;;;;;;6290311;28;20062;-70
2022/10/30 10:32:44;;;;;;;3.70;1.20;;;20.50;63.90;;;;;;6290472;28;20483;-70
2022/10/30 10:36:16;;;;;;;1.58;1.08;;;20.40;63.80;;;;;;6289769;28;20021;-70
2022/10/30 10:39:54;;;;;;;2.08;1.05;;;20.50;63.90;;;;;;6290470;28;20468;-69
2022/10/30 10:43:32;;;;;;;2.60;1.10;;;20.50;64.00;;;;;;6293853;28;20054;-70
2022/10/30 10:46:39;;;;;;;1.20;0.80;;;20.50;63.90;;;;;;6271721;28;20040;-70
2022/10/30 10:49:58;;;;;;;1.80;1.10;;;20.40;63.80;;;;;;6294798;28;20095;-70
2022/10/30 10:53:10;;;;;;;1.35;1.10;;;20.40;63.80;;;;;;6294455;28;20037;-69
2022/10/30 10:56:12;;;;;;;1.55;1.00;;;20.50;63.90;;;;;;6294692;28;20368;-70
2022/10/30 10:59:19;;;;;;;1.83;1.10;;;20.50;63.90;;;;;;6294603;28;20079;-69
2022/10/30 11:02:38;;;;;;;2.20;1.23;;;20.50;63.90;;;;;;6294442;28;20029;-70
2022/10/30 11:05:45;;;;;;;1.70;1.30;;;20.40;63.80;;;;;;6272537;28;20104;-70
2022/10/30 11:08:47;;;;;;;1.23;0.95;;;20.50;63.90;;;;;;6283310;28;20682;-71
2022/10/30 11:11:54;;;;;;;1.15;0.85;;;20.40;63.80;;;;;;6294179;28;20025;-70
2022/10/30 11:14:57;;;;;;;2.20;1.23;;;20.50;63.90;;;;;;6294387;28;20031;-70
2022/10/30 11:18:06;;;;;;;1.13;0.93;;;20.40;63.80;;;;;;6293851;28;20608;-70
2022/10/30 11:21:16;;;;;;;1.45;1.08;;;20.40;63.80;;;;;;6294058;28;20039;-71
2022/10/30 11:24:32;;;;;;;1.90;1.08;;;20.50;63.90;;;;;;6294121;28;20029;-70
2022/10/30 11:27:33;;;;;;;1.23;1.00;;;20.50;64.00;;;;;;6293648;28;20082;-71
2022/10/30 11:30:33;;;;;;;2.65;1.20;;;20.50;64.00;;;;;;6294069;28;20418;-70
2022/10/30 11:33:34;;;;;;;2.30;1.20;;;20.50;63.90;;;;;;6293088;28;20028;-69
2022/10/30 11:36:35;;;;;;;1.38;1.00;;;20.50;63.90;;;;;;6293841;28;20468;-70
2022/10/30 11:39:35;;;;;;;1.20;0.90;;;20.50;63.90;;;;;;6293673;28;20097;-70
2022/10/30 11:42:49;;;;;;;1.10;0.90;;;20.50;64.00;;;;;;6293396;28;20024;-70
2022/10/30 11:45:50;;;;;;;1.55;0.90;;;20.40;63.80;;;;;;6292225;28;20056;-68
2022/10/30 11:48:53;;;;;;;1.70;1.08;;;20.50;63.70;;;;;;6293205;28;20119;-70
2022/10/30 11:51:54;;;;;;;1.58;1.13;;;20.50;63.70;;;;;;6292505;28;20052;-70
2022/10/30 11:55:01;;;;;;;1.15;0.93;;;20.50;63.70;;;;;;6293190;28;20024;-70
2022/10/30 11:58:04;;;;;;;1.08;0.90;;;20.50;63.70;;;;;;6283504;28;20041;-70
2022/10/30 12:01:11;;;;;;;1.48;1.00;;;20.50;63.80;;;;;;6268558;28;20029;-70
2022/10/30 12:04:24;;;;;;;4.63;0.98;;;20.50;63.80;;;;;;6289745;28;20021;-70
2022/10/30 12:07:32;;;;;;;1.00;0.82;;;20.40;63.80;;;;;;6293247;28;20077;-70
2022/10/30 12:10:51;;;;;;;1.17;0.85;;;20.50;63.90;;;;;;6293628;28;20040;-70
2022/10/30 12:13:54;;;;;;;1.10;0.88;;;20.40;63.80;;;;;;6292409;28;20037;-69
2022/10/30 12:16:56;;;;;;;0.90;0.68;;;20.40;63.80;;;;;;6292768;28;20210;-70
2022/10/30 12:19:57;;;;;;;2.05;0.90;;;20.50;63.90;;;;;;6275172;28;20067;-70
2022/10/30 12:23:07;;;;;;;2.25;1.10;;;20.50;63.90;;;;;;6291693;28;20029;-70
2022/10/30 12:26:10;;;;;;;1.60;0.73;;;20.50;63.90;;;;;;6292523;28;20025;-70
2022/10/30 12:29:15;;;;;;;1.27;1.00;;;20.50;63.90;;;;;;6292451;28;20097;-70
2022/10/30 12:32:21;;;;;;;2.13;1.13;;;20.40;63.80;;;;;;6292814;28;20028;-70
2022/10/30 12:35:31;;;;;;;1.30;0.90;;;20.50;63.90;;;;;;6267365;28;20056;-70
2022/10/30 12:38:37;;;;;;;1.35;0.93;;;20.40;63.80;;;;;;6277017;28;20120;-70
2022/10/30 12:41:52;;;;;;;0.70;0.60;;;20.50;63.90;;;;;;6292278;28;20032;-70
2022/10/30 12:45:08;;;;;;;1.33;0.93;;;20.50;63.90;;;;;;6291816;28;20154;-69
2022/10/30 12:48:26;;;;;;;1.10;0.80;;;20.50;64.00;;;;;;6291939;28;20017;-70
2022/10/30 12:51:56;;;;;;;0.90;0.70;;;20.40;63.90;;;;;;6292364;28;20110;-70
2022/10/30 12:55:04;;;;;;;1.83;0.90;;;20.50;63.90;;;;;;6281863;28;20463;-70
2022/10/30 12:58:35;;;;;;;1.40;1.00;;;20.50;64.00;;;;;;6291795;28;20066;-69
2022/10/30 13:01:51;;;;;;;2.33;1.00;;;20.50;64.00;;;;;;6292025;28;20024;-70
2022/10/30 13:05:00;;;;;;;1.15;0.88;;;20.50;64.00;;;;;;6290192;28;20056;-70
2022/10/30 13:08:24;;;;;;;1.10;0.90;;;20.50;64.00;;;;;;6291448;28;20096;-71
2022/10/30 13:11:46;;;;;;;1.60;0.80;;;20.50;64.00;;;;;;6267453;28;20515;-70
2022/10/30 13:14:53;;;;;;;1.63;1.00;;;20.50;64.00;;;;;;6283715;28;20021;-70
2022/10/30 13:17:58;;;;;;;1.63;0.90;;;20.50;64.00;;;;;;6291374;28;20032;-70
2022/10/30 13:21:10;;;;;;;3.38;1.00;;;20.50;64.00;;;;;;6291394;28;20021;-70
2022/10/30 13:24:20;;;;;;;0.80;0.60;;;20.40;63.90;;;;;;6289398;28;20114;-71
2022/10/30 13:27:47;;;;;;;2.50;0.90;;;20.50;64.00;;;;;;6291573;28;20505;-71
2022/10/30 13:31:10;;;;;;;1.27;1.00;;;20.50;64.00;;;;;;6291167;28;20025;-69
2022/10/30 13:34:13;;;;;;;0.77;0.70;;;20.50;64.00;;;;;;6291054;28;20570;-70
2022/10/30 13:37:29;;;;;;;1.83;0.75;;;20.50;64.00;;;;;;6291428;28;20035;-69
2022/10/30 13:40:44;;;;;;;0.80;0.80;;;20.40;63.90;;;;;;6290886;28;20104;-70
2022/10/30 13:43:59;;;;;;;1.35;1.00;;;20.50;64.00;;;;;;6290384;28;20016;-70
2022/10/30 13:47:21;;;;;;;1.63;0.95;;;20.50;64.00;;;;;;6291253;28;20150;-70
2022/10/30 13:50:59;;;;;;;2.25;0.80;;;20.40;63.90;;;;;;6290333;28;20079;-70
2022/10/30 13:54:13;;;;;;;1.38;0.90;;;20.40;63.90;;;;;;6290493;28;20494;-70
2022/10/30 13:57:27;;;;;;;0.85;0.80;;;20.40;63.90;;;;;;6287641;28;20545;-70
2022/10/30 14:00:54;;;;;;;0.70;0.60;;;20.50;64.00;;;;;;6282567;28;20032;-71
2022/10/30 14:04:06;;;;;;;0.75;0.70;;;20.50;64.00;;;;;;6290351;28;20406;-70
2022/10/30 14:07:25;;;;;;;1.25;0.80;;;20.50;64.00;;;;;;6266133;28;20036;-70
2022/10/30 14:10:46;;;;;;;1.10;0.90;;;20.50;64.00;;;;;;6290319;28;20383;-70
2022/10/30 14:13:49;;;;;;;2.33;1.00;;;20.50;64.00;;;;;;6290372;28;20027;-70
2022/10/30 14:17:22;;;;;;;1.17;0.80;;;20.40;63.90;;;;;;6296043;28;20040;-70
2022/10/30 14:20:25;;;;;;;0.77;0.75;;;20.50;64.00;;;;;;6293210;28;20039;-70
2022/10/30 14:23:37;;;;;;;1.13;0.85;;;20.40;63.90;;;;;;6279515;28;20078;-70
2022/10/30 14:26:43;;;;;;;1.10;0.90;;;20.50;64.00;;;;;;6292769;28;20021;-70
2022/10/30 14:29:47;;;;;;;0.95;0.80;;;20.50;64.00;;;;;;6295005;28;20048;-70
2022/10/30 14:32:49;;;;;;;0.90;0.80;;;20.40;63.90;;;;;;6295161;28;20024;-70
2022/10/30 14:36:17;;;;;;;0.75;0.73;;;20.50;64.00;;;;;;6295103;28;20027;-70
2022/10/30 14:39:18;;;;;;;1.15;0.80;;;20.40;63.90;;;;;;6294578;28;20020;-70
2022/10/30 14:42:27;;;;;;;1.35;0.80;;;20.40;63.90;;;;;;6295373;28;20024;-70
2022/10/30 14:46:16;;;;;;;0.80;0.65;;;20.40;63.90;;;;;;6293984;28;20047;-69
2022/10/30 14:49:41;;;;;;;0.60;0.60;;;20.40;63.90;;;;;;6291293;28;20048;-69
2022/10/30 14:52:52;;;;;;;0.93;0.77;;;20.50;64.00;;;;;;6265567;28;20120;-70
2022/10/30 14:56:00;;;;;;;1.25;0.70;;;20.50;64.00;;;;;;6281435;28;20028;-70
2022/10/30 14:59:12;;;;;;;1.10;0.70;;;20.50;63.90;;;;;;6276687;28;20064;-70
2022/10/30 15:02:13;;;;;;;0.93;0.77;;;20.50;64.00;;;;;;6292086;28;20031;-70
2022/10/30 15:05:43;;;;;;;1.58;0.70;;;20.50;63.90;;;;;;6293974;28;20391;-70
2022/10/30 15:09:12;;;;;;;1.20;0.80;;;20.40;63.80;;;;;;6278661;28;20135;-70
2022/10/30 15:12:41;;;;;;;1.55;0.75;;;20.50;63.90;;;;;;6293198;28;20442;-70
2022/10/30 15:15:45;;;;;;;1.23;0.60;;;20.50;63.90;;;;;;6293628;28;20023;-71
2022/10/30 15:18:59;;;;;;;0.80;0.75;;;20.50;63.90;;;;;;6291608;28;20039;-70
2022/10/30 15:22:00;;;;;;;2.03;0.85;;;20.50;63.90;;;;;;6283602;28;20032;-70
2022/10/30 15:25:02;;;;;;;1.65;0.73;;;20.50;63.90;;;;;;6293520;28;20475;-70
2022/10/30 15:28:03;;;;;;;1.17;0.95;;;20.50;64.00;;;;;;6293578;28;20024;-70
2022/10/30 15:31:05;;;;;;;0.70;0.60;;;20.50;63.90;;;;;;6294000;28;20020;-69
2022/10/30 15:34:21;;;;;;;0.80;0.65;;;20.50;64.00;;;;;;6294022;28;20029;-70
2022/10/30 15:37:22;;;;;;;3.97;0.90;;;20.50;64.00;;;;;;6293147;28;20418;-71
2022/10/30 15:40:23;;;;;;;1.08;0.77;;;20.50;64.00;;;;;;6284430;28;20036;-70
2022/10/30 15:43:30;;;;;;;1.05;0.70;;;20.50;64.00;;;;;;6293374;28;20086;-70
2022/10/30 15:46:30;;;;;;;0.90;0.70;;;20.50;64.00;;;;;;6293466;28;20617;-70
2022/10/30 15:49:36;;;;;;;0.80;0.80;;;20.50;64.00;;;;;;6284158;28;20025;-70
2022/10/30 15:52:41;;;;;;;2.38;0.95;;;20.50;64.00;;;;;;6285731;28;20041;-70
2022/10/30 15:55:41;;;;;;;1.23;0.77;;;20.50;64.00;;;;;;6292890;28;20021;-70
2022/10/30 15:58:47;;;;;;;0.52;0.50;;;20.50;64.00;;;;;;6277963;28;20443;-70
2022/10/30 16:01:49;;;;;;;1.63;0.70;;;20.50;64.00;;;;;;6279361;28;20031;-70
2022/10/30 16:04:50;;;;;;;1.02;0.77;;;20.50;64.00;;;;;;6292168;28;20021;-70
2022/10/30 16:07:55;;;;;;;1.40;0.70;;;20.50;64.00;;;;;;6292965;28;20506;-70
2022/10/30 16:10:56;;;;;;;1.15;0.80;;;20.40;63.90;;;;;;6292714;28;20064;-70
2022/10/30 16:13:56;;;;;;;1.15;0.77;;;20.40;63.90;;;;;;6283975;28;20386;-70